sensor_id;sensor_type;location;lat;lon;timestamp;P1;durP1;ratioP1;P2;durP2;ratioP2
20734;SDS011;10528;52.124;5.196;2022-10-22T00:00:07;6.75;;;3.00;;
20734;SDS011;10528;52.124;5.196;2022-10-22T00:02:37;7.78;;;3.00;;
20734;SDS011;10528;52.124;5.196;2022-10-22T00:05:04;9.20;;;3.78;;
20734;SDS011;10528;52.124;5.196;2022-10-22T00:07:32;7.05;;;2.75;;
20734;SDS011;10528;52.124;5.196;2022-10-22T00:09:59;5.43;;;2.83;;
20734;SDS011;10528;52.124;5.196;2022-10-22T00:12:27;5.90;;;2.88;;
20734;SDS011;10528;52.124;5.196;2022-10-22T00:14:54;7.65;;;2.83;;
20734;SDS011;10528;52.124;5.196;2022-10-22T00:17:20;9.57;;;3.33;;
20734;SDS011;10528;52.124;5.196;2022-10-22T00:19:47;5.65;;;3.05;;
20734;SDS011;10528;52.124;5.196;2022-10-22T00:22:14;10.05;;;3.30;;
20734;SDS011;10528;52.124;5.196;2022-10-22T00:24:41;9.48;;;2.97;;
20734;SDS011;10528;52.124;5.196;2022-10-22T00:27:09;10.80;;;4.10;;
20734;SDS011;10528;52.124;5.196;2022-10-22T00:29:37;10.65;;;3.33;;
20734;SDS011;10528;52.124;5.196;2022-10-22T00:32:04;7.40;;;3.40;;
20734;SDS011;10528;52.124;5.196;2022-10-22T00:34:32;5.07;;;3.30;;
20734;SDS011;10528;52.124;5.196;2022-10-22T00:36:59;6.00;;;3.65;;
20734;SDS011;10528;52.124;5.196;2022-10-22T00:39:27;7.22;;;3.50;;
20734;SDS011;10528;52.124;5.196;2022-10-22T00:41:55;6.35;;;3.22;;
20734;SDS011;10528;52.124;5.196;2022-10-22T00:48:02;6.40;;;3.33;;
20734;SDS011;10528;52.124;5.196;2022-10-22T00:50:32;7.20;;;3.80;;
20734;SDS011;10528;52.124;5.196;2022-10-22T00:53:13;5.22;;;3.20;;
20734;SDS011;10528;52.124;5.196;2022-10-22T00:55:46;7.90;;;3.65;;
20734;SDS011;10528;52.124;5.196;2022-10-22T00:58:18;8.15;;;3.60;;
20734;SDS011;10528;52.124;5.196;2022-10-22T01:00:49;11.27;;;3.88;;
20734;SDS011;10528;52.124;5.196;2022-10-22T01:03:17;5.07;;;3.15;;
20734;SDS011;10528;52.124;5.196;2022-10-22T01:05:55;6.97;;;3.67;;
20734;SDS011;10528;52.124;5.196;2022-10-22T01:08:45;6.40;;;3.63;;
20734;SDS011;10528;52.124;5.196;2022-10-22T01:11:31;6.47;;;3.25;;
20734;SDS011;10528;52.124;5.196;2022-10-22T01:14:40;6.78;;;3.88;;
20734;SDS011;10528;52.124;5.196;2022-10-22T01:17:36;5.63;;;3.25;;
20734;SDS011;10528;52.124;5.196;2022-10-22T01:26:13;9.38;;;3.72;;
20734;SDS011;10528;52.124;5.196;2022-10-22T01:32:07;6.63;;;3.53;;
20734;SDS011;10528;52.124;5.196;2022-10-22T01:34:41;6.07;;;3.00;;
20734;SDS011;10528;52.124;5.196;2022-10-22T01:37:13;8.95;;;3.60;;
20734;SDS011;10528;52.124;5.196;2022-10-22T01:39:43;7.95;;;3.60;;
20734;SDS011;10528;52.124;5.196;2022-10-22T01:42:12;7.40;;;3.67;;
20734;SDS011;10528;52.124;5.196;2022-10-22T01:44:39;11.35;;;3.55;;
20734;SDS011;10528;52.124;5.196;2022-10-22T01:53:09;8.60;;;3.60;;
20734;SDS011;10528;52.124;5.196;2022-10-22T01:58:50;7.68;;;3.97;;
20734;SDS011;10528;52.124;5.196;2022-10-22T02:01:42;6.80;;;3.88;;
20734;SDS011;10528;52.124;5.196;2022-10-22T02:04:52;6.15;;;3.33;;
20734;SDS011;10528;52.124;5.196;2022-10-22T02:07:20;8.30;;;3.90;;
20734;SDS011;10528;52.124;5.196;2022-10-22T02:09:58;5.88;;;3.10;;
20734;SDS011;10528;52.124;5.196;2022-10-22T02:12:27;7.22;;;3.15;;
20734;SDS011;10528;52.124;5.196;2022-10-22T02:14:57;8.18;;;3.30;;
20734;SDS011;10528;52.124;5.196;2022-10-22T02:17:29;5.60;;;3.22;;
20734;SDS011;10528;52.124;5.196;2022-10-22T02:20:00;4.45;;;2.92;;
20734;SDS011;10528;52.124;5.196;2022-10-22T02:22:37;10.02;;;3.08;;
20734;SDS011;10528;52.124;5.196;2022-10-22T02:25:05;9.85;;;3.50;;
20734;SDS011;10528;52.124;5.196;2022-10-22T02:27:55;7.25;;;3.25;;
20734;SDS011;10528;52.124;5.196;2022-10-22T02:30:34;6.90;;;3.30;;
20734;SDS011;10528;52.124;5.196;2022-10-22T02:33:08;6.38;;;3.20;;
20734;SDS011;10528;52.124;5.196;2022-10-22T02:35:37;5.95;;;3.50;;
20734;SDS011;10528;52.124;5.196;2022-10-22T02:38:07;15.35;;;3.05;;
20734;SDS011;10528;52.124;5.196;2022-10-22T02:40:36;10.65;;;3.42;;
20734;SDS011;10528;52.124;5.196;2022-10-22T02:43:04;11.95;;;3.63;;
20734;SDS011;10528;52.124;5.196;2022-10-22T02:45:32;10.90;;;3.35;;
20734;SDS011;10528;52.124;5.196;2022-10-22T02:48:00;9.35;;;3.30;;
20734;SDS011;10528;52.124;5.196;2022-10-22T02:50:27;9.80;;;3.20;;
20734;SDS011;10528;52.124;5.196;2022-10-22T02:52:54;6.55;;;3.35;;
20734;SDS011;10528;52.124;5.196;2022-10-22T02:55:20;9.13;;;2.80;;
20734;SDS011;10528;52.124;5.196;2022-10-22T02:57:47;9.13;;;3.20;;
20734;SDS011;10528;52.124;5.196;2022-10-22T03:00:14;6.85;;;3.40;;
20734;SDS011;10528;52.124;5.196;2022-10-22T03:02:41;8.07;;;2.85;;
20734;SDS011;10528;52.124;5.196;2022-10-22T03:05:08;7.63;;;3.50;;
20734;SDS011;10528;52.124;5.196;2022-10-22T03:07:35;5.88;;;3.05;;
20734;SDS011;10528;52.124;5.196;2022-10-22T03:10:03;8.45;;;3.75;;
20734;SDS011;10528;52.124;5.196;2022-10-22T03:12:30;6.38;;;2.90;;
20734;SDS011;10528;52.124;5.196;2022-10-22T03:14:57;8.90;;;3.80;;
20734;SDS011;10528;52.124;5.196;2022-10-22T03:17:24;5.47;;;3.30;;
20734;SDS011;10528;52.124;5.196;2022-10-22T03:19:51;8.38;;;3.67;;
20734;SDS011;10528;52.124;5.196;2022-10-22T03:22:19;11.35;;;3.58;;
20734;SDS011;10528;52.124;5.196;2022-10-22T03:24:58;7.97;;;3.20;;
20734;SDS011;10528;52.124;5.196;2022-10-22T03:27:32;7.50;;;3.28;;
20734;SDS011;10528;52.124;5.196;2022-10-22T03:30:03;6.75;;;3.40;;
20734;SDS011;10528;52.124;5.196;2022-10-22T03:32:31;6.20;;;2.92;;
20734;SDS011;10528;52.124;5.196;2022-10-22T03:34:58;9.55;;;3.78;;
20734;SDS011;10528;52.124;5.196;2022-10-22T03:37:30;7.15;;;3.05;;
20734;SDS011;10528;52.124;5.196;2022-10-22T03:39:58;7.35;;;3.50;;
20734;SDS011;10528;52.124;5.196;2022-10-22T03:42:26;7.38;;;3.45;;
20734;SDS011;10528;52.124;5.196;2022-10-22T03:44:53;13.15;;;4.63;;
20734;SDS011;10528;52.124;5.196;2022-10-22T03:47:20;8.68;;;3.78;;
20734;SDS011;10528;52.124;5.196;2022-10-22T03:49:52;8.82;;;3.42;;
20734;SDS011;10528;52.124;5.196;2022-10-22T03:52:19;9.18;;;3.55;;
20734;SDS011;10528;52.124;5.196;2022-10-22T03:54:45;7.85;;;3.60;;
20734;SDS011;10528;52.124;5.196;2022-10-22T03:57:12;7.22;;;3.28;;
20734;SDS011;10528;52.124;5.196;2022-10-22T03:59:41;11.45;;;3.63;;
20734;SDS011;10528;52.124;5.196;2022-10-22T04:02:10;9.13;;;3.45;;
20734;SDS011;10528;52.124;5.196;2022-10-22T04:04:38;8.85;;;4.32;;
20734;SDS011;10528;52.124;5.196;2022-10-22T04:07:06;6.57;;;3.67;;
20734;SDS011;10528;52.124;5.196;2022-10-22T04:09:34;8.30;;;3.72;;
20734;SDS011;10528;52.124;5.196;2022-10-22T04:12:01;7.80;;;3.78;;
20734;SDS011;10528;52.124;5.196;2022-10-22T04:14:30;9.25;;;3.40;;
20734;SDS011;10528;52.124;5.196;2022-10-22T04:16:57;7.57;;;3.47;;
20734;SDS011;10528;52.124;5.196;2022-10-22T04:19:24;9.38;;;4.10;;
20734;SDS011;10528;52.124;5.196;2022-10-22T04:21:51;8.20;;;3.85;;
20734;SDS011;10528;52.124;5.196;2022-10-22T04:24:18;6.38;;;3.28;;
20734;SDS011;10528;52.124;5.196;2022-10-22T04:26:45;8.50;;;3.60;;
20734;SDS011;10528;52.124;5.196;2022-10-22T04:29:12;6.93;;;2.88;;
20734;SDS011;10528;52.124;5.196;2022-10-22T04:31:41;6.80;;;3.83;;
20734;SDS011;10528;52.124;5.196;2022-10-22T04:34:08;8.45;;;3.67;;
20734;SDS011;10528;52.124;5.196;2022-10-22T04:36:35;7.40;;;3.75;;
20734;SDS011;10528;52.124;5.196;2022-10-22T04:39:02;9.70;;;3.20;;
20734;SDS011;10528;52.124;5.196;2022-10-22T04:41:32;6.50;;;3.47;;
20734;SDS011;10528;52.124;5.196;2022-10-22T04:44:02;6.78;;;3.75;;
20734;SDS011;10528;52.124;5.196;2022-10-22T04:46:31;8.02;;;3.60;;
20734;SDS011;10528;52.124;5.196;2022-10-22T04:48:59;7.57;;;3.70;;
20734;SDS011;10528;52.124;5.196;2022-10-22T04:51:29;7.78;;;3.30;;
20734;SDS011;10528;52.124;5.196;2022-10-22T04:53:57;8.23;;;3.58;;
20734;SDS011;10528;52.124;5.196;2022-10-22T04:56:28;8.82;;;3.67;;
20734;SDS011;10528;52.124;5.196;2022-10-22T04:58:57;12.73;;;4.38;;
20734;SDS011;10528;52.124;5.196;2022-10-22T05:01:28;7.63;;;3.53;;
20734;SDS011;10528;52.124;5.196;2022-10-22T05:04:00;6.68;;;3.50;;
20734;SDS011;10528;52.124;5.196;2022-10-22T05:06:29;7.47;;;3.33;;
20734;SDS011;10528;52.124;5.196;2022-10-22T05:08:59;11.98;;;3.80;;
20734;SDS011;10528;52.124;5.196;2022-10-22T05:11:37;11.52;;;3.63;;
20734;SDS011;10528;52.124;5.196;2022-10-22T05:14:11;9.93;;;3.58;;
20734;SDS011;10528;52.124;5.196;2022-10-22T05:16:38;8.80;;;3.08;;
20734;SDS011;10528;52.124;5.196;2022-10-22T05:19:05;6.22;;;3.45;;
20734;SDS011;10528;52.124;5.196;2022-10-22T05:21:33;8.18;;;3.80;;
20734;SDS011;10528;52.124;5.196;2022-10-22T05:24:02;8.50;;;3.25;;
20734;SDS011;10528;52.124;5.196;2022-10-22T05:26:29;9.00;;;3.17;;
20734;SDS011;10528;52.124;5.196;2022-10-22T05:28:56;8.18;;;3.70;;
20734;SDS011;10528;52.124;5.196;2022-10-22T05:31:23;9.50;;;3.60;;
20734;SDS011;10528;52.124;5.196;2022-10-22T05:33:50;6.45;;;3.05;;
20734;SDS011;10528;52.124;5.196;2022-10-22T05:36:19;8.95;;;3.45;;
20734;SDS011;10528;52.124;5.196;2022-10-22T05:38:47;7.90;;;3.42;;
20734;SDS011;10528;52.124;5.196;2022-10-22T05:41:22;8.70;;;3.10;;
20734;SDS011;10528;52.124;5.196;2022-10-22T05:43:53;7.57;;;3.30;;
20734;SDS011;10528;52.124;5.196;2022-10-22T05:46:25;8.18;;;3.38;;
20734;SDS011;10528;52.124;5.196;2022-10-22T05:48:55;8.63;;;3.78;;
20734;SDS011;10528;52.124;5.196;2022-10-22T05:51:26;7.32;;;3.05;;
20734;SDS011;10528;52.124;5.196;2022-10-22T05:53:55;11.60;;;3.58;;
20734;SDS011;10528;52.124;5.196;2022-10-22T05:56:26;8.80;;;3.47;;
20734;SDS011;10528;52.124;5.196;2022-10-22T05:58:55;6.05;;;3.05;;
20734;SDS011;10528;52.124;5.196;2022-10-22T06:01:24;7.55;;;3.00;;
20734;SDS011;10528;52.124;5.196;2022-10-22T06:03:54;7.22;;;2.90;;
20734;SDS011;10528;52.124;5.196;2022-10-22T06:06:34;8.43;;;3.67;;
20734;SDS011;10528;52.124;5.196;2022-10-22T06:11:44;10.40;;;3.30;;
20734;SDS011;10528;52.124;5.196;2022-10-22T06:14:13;8.25;;;3.10;;
20734;SDS011;10528;52.124;5.196;2022-10-22T06:16:40;7.45;;;2.53;;
20734;SDS011;10528;52.124;5.196;2022-10-22T06:19:09;6.72;;;3.05;;
20734;SDS011;10528;52.124;5.196;2022-10-22T06:21:38;6.10;;;2.47;;
20734;SDS011;10528;52.124;5.196;2022-10-22T06:24:05;4.63;;;2.55;;
20734;SDS011;10528;52.124;5.196;2022-10-22T06:26:32;7.20;;;2.75;;
20734;SDS011;10528;52.124;5.196;2022-10-22T06:29:00;8.68;;;2.58;;
20734;SDS011;10528;52.124;5.196;2022-10-22T06:31:27;7.43;;;2.72;;
20734;SDS011;10528;52.124;5.196;2022-10-22T06:33:57;7.13;;;2.78;;
20734;SDS011;10528;52.124;5.196;2022-10-22T06:36:24;6.82;;;2.50;;
20734;SDS011;10528;52.124;5.196;2022-10-22T06:38:51;6.65;;;2.58;;
20734;SDS011;10528;52.124;5.196;2022-10-22T06:41:20;7.43;;;3.00;;
20734;SDS011;10528;52.124;5.196;2022-10-22T06:43:54;6.93;;;2.58;;
20734;SDS011;10528;52.124;5.196;2022-10-22T06:46:22;7.82;;;2.80;;
20734;SDS011;10528;52.124;5.196;2022-10-22T06:48:52;7.68;;;2.40;;
20734;SDS011;10528;52.124;5.196;2022-10-22T06:51:25;7.88;;;3.08;;
20734;SDS011;10528;52.124;5.196;2022-10-22T06:53:53;10.25;;;2.83;;
20734;SDS011;10528;52.124;5.196;2022-10-22T06:56:23;7.72;;;3.13;;
20734;SDS011;10528;52.124;5.196;2022-10-22T06:58:53;9.85;;;2.65;;
20734;SDS011;10528;52.124;5.196;2022-10-22T07:01:24;7.05;;;2.80;;
20734;SDS011;10528;52.124;5.196;2022-10-22T07:03:54;9.52;;;2.92;;
20734;SDS011;10528;52.124;5.196;2022-10-22T07:06:21;7.65;;;2.55;;
20734;SDS011;10528;52.124;5.196;2022-10-22T07:08:49;7.93;;;2.75;;
20734;SDS011;10528;52.124;5.196;2022-10-22T07:11:18;10.73;;;2.97;;
20734;SDS011;10528;52.124;5.196;2022-10-22T07:13:50;9.20;;;3.08;;
20734;SDS011;10528;52.124;5.196;2022-10-22T07:16:21;6.18;;;2.25;;
20734;SDS011;10528;52.124;5.196;2022-10-22T07:18:53;9.48;;;2.88;;
20734;SDS011;10528;52.124;5.196;2022-10-22T07:21:20;8.90;;;3.03;;
20734;SDS011;10528;52.124;5.196;2022-10-22T07:23:47;8.07;;;2.85;;
20734;SDS011;10528;52.124;5.196;2022-10-22T07:26:15;7.63;;;3.17;;
20734;SDS011;10528;52.124;5.196;2022-10-22T07:28:42;7.28;;;2.80;;
20734;SDS011;10528;52.124;5.196;2022-10-22T07:31:10;7.35;;;2.45;;
20734;SDS011;10528;52.124;5.196;2022-10-22T07:33:39;5.75;;;2.20;;
20734;SDS011;10528;52.124;5.196;2022-10-22T07:36:07;11.40;;;2.90;;
20734;SDS011;10528;52.124;5.196;2022-10-22T07:38:43;4.80;;;1.88;;
20734;SDS011;10528;52.124;5.196;2022-10-22T07:41:15;6.50;;;2.30;;
20734;SDS011;10528;52.124;5.196;2022-10-22T07:43:42;7.60;;;2.20;;
20734;SDS011;10528;52.124;5.196;2022-10-22T07:46:09;7.75;;;2.38;;
20734;SDS011;10528;52.124;5.196;2022-10-22T07:48:37;12.38;;;2.50;;
20734;SDS011;10528;52.124;5.196;2022-10-22T07:51:04;8.65;;;2.15;;
20734;SDS011;10528;52.124;5.196;2022-10-22T07:53:31;8.50;;;2.03;;
20734;SDS011;10528;52.124;5.196;2022-10-22T07:55:58;6.25;;;2.33;;
20734;SDS011;10528;52.124;5.196;2022-10-22T07:58:25;9.25;;;2.47;;
20734;SDS011;10528;52.124;5.196;2022-10-22T08:00:56;7.75;;;1.90;;
20734;SDS011;10528;52.124;5.196;2022-10-22T08:03:31;9.93;;;2.33;;
20734;SDS011;10528;52.124;5.196;2022-10-22T08:05:58;7.57;;;2.17;;
20734;SDS011;10528;52.124;5.196;2022-10-22T08:08:26;9.35;;;2.10;;
20734;SDS011;10528;52.124;5.196;2022-10-22T08:10:56;9.50;;;2.35;;
20734;SDS011;10528;52.124;5.196;2022-10-22T08:13:25;7.90;;;2.10;;
20734;SDS011;10528;52.124;5.196;2022-10-22T08:15:56;9.07;;;2.17;;
20734;SDS011;10528;52.124;5.196;2022-10-22T08:18:24;10.80;;;2.33;;
20734;SDS011;10528;52.124;5.196;2022-10-22T08:20:52;5.85;;;2.03;;
20734;SDS011;10528;52.124;5.196;2022-10-22T08:23:19;10.80;;;2.28;;
20734;SDS011;10528;52.124;5.196;2022-10-22T08:25:52;8.35;;;2.20;;
20734;SDS011;10528;52.124;5.196;2022-10-22T08:28:19;8.90;;;2.30;;
20734;SDS011;10528;52.124;5.196;2022-10-22T08:30:47;9.75;;;2.30;;
20734;SDS011;10528;52.124;5.196;2022-10-22T08:33:14;8.77;;;2.20;;
20734;SDS011;10528;52.124;5.196;2022-10-22T08:35:43;8.27;;;2.28;;
20734;SDS011;10528;52.124;5.196;2022-10-22T08:38:17;8.73;;;2.50;;
20734;SDS011;10528;52.124;5.196;2022-10-22T08:40:49;7.07;;;1.98;;
20734;SDS011;10528;52.124;5.196;2022-10-22T08:46:38;7.43;;;2.63;;
20734;SDS011;10528;52.124;5.196;2022-10-22T08:49:32;9.85;;;1.95;;
20734;SDS011;10528;52.124;5.196;2022-10-22T08:52:08;8.65;;;2.30;;
20734;SDS011;10528;52.124;5.196;2022-10-22T08:54:46;9.40;;;2.22;;
20734;SDS011;10528;52.124;5.196;2022-10-22T08:57:36;10.57;;;2.30;;
20734;SDS011;10528;52.124;5.196;2022-10-22T09:00:23;7.03;;;2.03;;
20734;SDS011;10528;52.124;5.196;2022-10-22T09:06:09;7.25;;;2.10;;
20734;SDS011;10528;52.124;5.196;2022-10-22T09:08:52;5.45;;;1.85;;
20734;SDS011;10528;52.124;5.196;2022-10-22T09:11:31;5.18;;;1.83;;
20734;SDS011;10528;52.124;5.196;2022-10-22T09:14:02;8.32;;;1.98;;
20734;SDS011;10528;52.124;5.196;2022-10-22T09:21:56;10.32;;;2.22;;
20734;SDS011;10528;52.124;5.196;2022-10-22T09:24:37;10.00;;;2.17;;
20734;SDS011;10528;52.124;5.196;2022-10-22T09:27:20;7.72;;;2.00;;
20734;SDS011;10528;52.124;5.196;2022-10-22T09:29:52;9.30;;;2.28;;
20734;SDS011;10528;52.124;5.196;2022-10-22T09:32:19;11.07;;;2.50;;
20734;SDS011;10528;52.124;5.196;2022-10-22T09:34:47;9.18;;;1.95;;
20734;SDS011;10528;52.124;5.196;2022-10-22T09:37:17;8.50;;;2.10;;
20734;SDS011;10528;52.124;5.196;2022-10-22T09:39:50;9.65;;;2.17;;
20734;SDS011;10528;52.124;5.196;2022-10-22T09:42:19;7.45;;;1.65;;
20734;SDS011;10528;52.124;5.196;2022-10-22T09:44:54;8.48;;;1.63;;
20734;SDS011;10528;52.124;5.196;2022-10-22T09:50:26;13.05;;;2.05;;
20734;SDS011;10528;52.124;5.196;2022-10-22T09:53:44;17.48;;;2.90;;
20734;SDS011;10528;52.124;5.196;2022-10-22T09:56:24;9.30;;;2.00;;
20734;SDS011;10528;52.124;5.196;2022-10-22T09:59:01;8.90;;;2.20;;
20734;SDS011;10528;52.124;5.196;2022-10-22T10:01:32;7.53;;;1.95;;
20734;SDS011;10528;52.124;5.196;2022-10-22T10:04:07;8.10;;;2.38;;
20734;SDS011;10528;52.124;5.196;2022-10-22T10:06:41;9.13;;;2.50;;
20734;SDS011;10528;52.124;5.196;2022-10-22T10:09:23;9.23;;;2.20;;
20734;SDS011;10528;52.124;5.196;2022-10-22T10:26:44;9.38;;;2.45;;
20734;SDS011;10528;52.124;5.196;2022-10-22T10:32:46;8.48;;;1.65;;
20734;SDS011;10528;52.124;5.196;2022-10-22T10:36:02;9.98;;;2.42;;
20734;SDS011;10528;52.124;5.196;2022-10-22T10:50:30;9.38;;;2.05;;
20734;SDS011;10528;52.124;5.196;2022-10-22T10:59:44;6.25;;;2.00;;
20734;SDS011;10528;52.124;5.196;2022-10-22T11:02:35;6.45;;;1.88;;
20734;SDS011;10528;52.124;5.196;2022-10-22T11:05:44;7.70;;;1.33;;
20734;SDS011;10528;52.124;5.196;2022-10-22T11:08:30;10.40;;;2.13;;
20734;SDS011;10528;52.124;5.196;2022-10-22T11:11:07;6.40;;;1.48;;
20734;SDS011;10528;52.124;5.196;2022-10-22T11:16:33;11.50;;;1.65;;
20734;SDS011;10528;52.124;5.196;2022-10-22T11:19:31;7.70;;;1.63;;
20734;SDS011;10528;52.124;5.196;2022-10-22T11:22:19;10.13;;;2.53;;
20734;SDS011;10528;52.124;5.196;2022-10-22T11:25:12;8.45;;;1.58;;
20734;SDS011;10528;52.124;5.196;2022-10-22T11:28:04;9.93;;;2.13;;
20734;SDS011;10528;52.124;5.196;2022-10-22T11:31:01;10.95;;;1.75;;
20734;SDS011;10528;52.124;5.196;2022-10-22T11:33:40;7.15;;;1.63;;
20734;SDS011;10528;52.124;5.196;2022-10-22T11:36:30;8.32;;;1.75;;
20734;SDS011;10528;52.124;5.196;2022-10-22T11:38:59;11.40;;;2.17;;
20734;SDS011;10528;52.124;5.196;2022-10-22T11:41:29;11.48;;;1.77;;
20734;SDS011;10528;52.124;5.196;2022-10-22T11:44:10;7.70;;;1.65;;
20734;SDS011;10528;52.124;5.196;2022-10-22T11:49:44;7.00;;;1.45;;
20734;SDS011;10528;52.124;5.196;2022-10-22T11:52:23;11.00;;;1.55;;
20734;SDS011;10528;52.124;5.196;2022-10-22T11:55:00;10.73;;;2.22;;
20734;SDS011;10528;52.124;5.196;2022-10-22T11:57:34;10.75;;;2.25;;
20734;SDS011;10528;52.124;5.196;2022-10-22T12:00:08;8.77;;;1.67;;
20734;SDS011;10528;52.124;5.196;2022-10-22T12:03:03;9.23;;;2.03;;
20734;SDS011;10528;52.124;5.196;2022-10-22T12:14:22;11.57;;;2.05;;
20734;SDS011;10528;52.124;5.196;2022-10-22T12:17:06;8.70;;;1.85;;
20734;SDS011;10528;52.124;5.196;2022-10-22T12:19:38;10.77;;;1.70;;
20734;SDS011;10528;52.124;5.196;2022-10-22T12:22:38;7.03;;;2.00;;
20734;SDS011;10528;52.124;5.196;2022-10-22T12:25:25;11.00;;;2.80;;
20734;SDS011;10528;52.124;5.196;2022-10-22T12:28:01;13.32;;;2.45;;
20734;SDS011;10528;52.124;5.196;2022-10-22T12:30:29;9.82;;;1.80;;
20734;SDS011;10528;52.124;5.196;2022-10-22T12:33:01;7.82;;;1.92;;
20734;SDS011;10528;52.124;5.196;2022-10-22T12:35:33;13.27;;;2.63;;
20734;SDS011;10528;52.124;5.196;2022-10-22T12:38:15;10.07;;;2.28;;
20734;SDS011;10528;52.124;5.196;2022-10-22T12:40:45;11.45;;;2.33;;
20734;SDS011;10528;52.124;5.196;2022-10-22T12:43:16;8.07;;;2.15;;
20734;SDS011;10528;52.124;5.196;2022-10-22T12:45:52;10.13;;;1.77;;
20734;SDS011;10528;52.124;5.196;2022-10-22T12:48:21;11.07;;;1.80;;
20734;SDS011;10528;52.124;5.196;2022-10-22T12:50:53;8.05;;;1.92;;
20734;SDS011;10528;52.124;5.196;2022-10-22T12:53:26;8.70;;;1.88;;
20734;SDS011;10528;52.124;5.196;2022-10-22T12:55:56;10.30;;;2.20;;
20734;SDS011;10528;52.124;5.196;2022-10-22T12:58:30;14.63;;;1.88;;
20734;SDS011;10528;52.124;5.196;2022-10-22T13:01:06;11.07;;;2.33;;
20734;SDS011;10528;52.124;5.196;2022-10-22T13:03:41;9.38;;;2.22;;
20734;SDS011;10528;52.124;5.196;2022-10-22T13:08:55;10.80;;;2.40;;
20734;SDS011;10528;52.124;5.196;2022-10-22T13:11:41;8.45;;;1.88;;
20734;SDS011;10528;52.124;5.196;2022-10-22T13:14:28;9.50;;;2.60;;
20734;SDS011;10528;52.124;5.196;2022-10-22T13:17:13;9.55;;;1.95;;
20734;SDS011;10528;52.124;5.196;2022-10-22T13:22:37;9.15;;;2.40;;
20734;SDS011;10528;52.124;5.196;2022-10-22T13:27:48;7.55;;;1.95;;
20734;SDS011;10528;52.124;5.196;2022-10-22T13:30:24;11.80;;;2.50;;
20734;SDS011;10528;52.124;5.196;2022-10-22T13:33:05;11.88;;;1.70;;
20734;SDS011;10528;52.124;5.196;2022-10-22T13:35:48;11.93;;;2.63;;
20734;SDS011;10528;52.124;5.196;2022-10-22T13:38:17;11.70;;;2.60;;
20734;SDS011;10528;52.124;5.196;2022-10-22T13:40:46;11.20;;;2.25;;
20734;SDS011;10528;52.124;5.196;2022-10-22T13:43:14;11.20;;;2.58;;
20734;SDS011;10528;52.124;5.196;2022-10-22T13:45:42;16.98;;;2.53;;
20734;SDS011;10528;52.124;5.196;2022-10-22T13:48:14;13.02;;;2.17;;
20734;SDS011;10528;52.124;5.196;2022-10-22T13:50:47;7.97;;;2.42;;
20734;SDS011;10528;52.124;5.196;2022-10-22T13:53:19;10.55;;;2.45;;
20734;SDS011;10528;52.124;5.196;2022-10-22T13:55:50;12.93;;;3.17;;
20734;SDS011;10528;52.124;5.196;2022-10-22T13:58:18;9.55;;;2.05;;
20734;SDS011;10528;52.124;5.196;2022-10-22T14:00:53;9.48;;;2.38;;
20734;SDS011;10528;52.124;5.196;2022-10-22T14:03:27;9.10;;;2.22;;
20734;SDS011;10528;52.124;5.196;2022-10-22T14:05:58;10.02;;;2.67;;
20734;SDS011;10528;52.124;5.196;2022-10-22T14:08:26;11.50;;;2.50;;
20734;SDS011;10528;52.124;5.196;2022-10-22T14:10:53;11.57;;;2.30;;
20734;SDS011;10528;52.124;5.196;2022-10-22T14:13:21;11.18;;;2.08;;
20734;SDS011;10528;52.124;5.196;2022-10-22T14:15:48;9.77;;;2.30;;
20734;SDS011;10528;52.124;5.196;2022-10-22T14:18:24;13.25;;;2.38;;
20734;SDS011;10528;52.124;5.196;2022-10-22T14:20:57;8.88;;;2.05;;
20734;SDS011;10528;52.124;5.196;2022-10-22T14:23:30;11.88;;;2.15;;
20734;SDS011;10528;52.124;5.196;2022-10-22T14:25:58;9.45;;;1.98;;
20734;SDS011;10528;52.124;5.196;2022-10-22T14:28:27;9.13;;;1.80;;
20734;SDS011;10528;52.124;5.196;2022-10-22T14:30:56;11.43;;;1.98;;
20734;SDS011;10528;52.124;5.196;2022-10-22T14:33:24;10.20;;;1.88;;
20734;SDS011;10528;52.124;5.196;2022-10-22T14:35:58;10.00;;;1.92;;
20734;SDS011;10528;52.124;5.196;2022-10-22T14:38:26;8.45;;;2.67;;
20734;SDS011;10528;52.124;5.196;2022-10-22T14:40:54;10.85;;;2.53;;
20734;SDS011;10528;52.124;5.196;2022-10-22T14:43:23;11.10;;;2.47;;
20734;SDS011;10528;52.124;5.196;2022-10-22T14:45:54;12.38;;;2.50;;
20734;SDS011;10528;52.124;5.196;2022-10-22T14:48:21;8.45;;;2.38;;
20734;SDS011;10528;52.124;5.196;2022-10-22T14:50:48;10.73;;;2.58;;
20734;SDS011;10528;52.124;5.196;2022-10-22T14:53:15;7.93;;;2.28;;
20734;SDS011;10528;52.124;5.196;2022-10-22T14:55:43;8.70;;;2.10;;
20734;SDS011;10528;52.124;5.196;2022-10-22T14:58:12;9.52;;;2.50;;
20734;SDS011;10528;52.124;5.196;2022-10-22T15:00:39;9.32;;;2.70;;
20734;SDS011;10528;52.124;5.196;2022-10-22T15:03:08;9.75;;;2.08;;
20734;SDS011;10528;52.124;5.196;2022-10-22T15:05:38;11.10;;;1.92;;
20734;SDS011;10528;52.124;5.196;2022-10-22T15:08:09;8.85;;;1.73;;
20734;SDS011;10528;52.124;5.196;2022-10-22T15:10:37;11.82;;;2.00;;
20734;SDS011;10528;52.124;5.196;2022-10-22T15:13:05;12.35;;;2.22;;
20734;SDS011;10528;52.124;5.196;2022-10-22T15:15:32;9.00;;;2.13;;
20734;SDS011;10528;52.124;5.196;2022-10-22T15:18:04;8.77;;;1.98;;
20734;SDS011;10528;52.124;5.196;2022-10-22T15:20:31;10.93;;;2.33;;
20734;SDS011;10528;52.124;5.196;2022-10-22T15:22:58;14.07;;;2.00;;
20734;SDS011;10528;52.124;5.196;2022-10-22T15:25:25;8.23;;;2.03;;
20734;SDS011;10528;52.124;5.196;2022-10-22T15:27:52;8.98;;;2.30;;
20734;SDS011;10528;52.124;5.196;2022-10-22T15:30:27;9.32;;;1.98;;
20734;SDS011;10528;52.124;5.196;2022-10-22T15:32:53;14.23;;;2.05;;
20734;SDS011;10528;52.124;5.196;2022-10-22T15:35:20;7.78;;;1.77;;
20734;SDS011;10528;52.124;5.196;2022-10-22T15:37:49;10.27;;;2.38;;
20734;SDS011;10528;52.124;5.196;2022-10-22T15:40:16;7.05;;;1.80;;
20734;SDS011;10528;52.124;5.196;2022-10-22T15:42:43;9.43;;;1.92;;
20734;SDS011;10528;52.124;5.196;2022-10-22T15:45:11;8.20;;;1.58;;
20734;SDS011;10528;52.124;5.196;2022-10-22T15:47:38;9.00;;;2.38;;
20734;SDS011;10528;52.124;5.196;2022-10-22T15:50:05;9.65;;;1.75;;
20734;SDS011;10528;52.124;5.196;2022-10-22T15:52:33;12.73;;;1.80;;
20734;SDS011;10528;52.124;5.196;2022-10-22T15:55:00;8.32;;;2.03;;
20734;SDS011;10528;52.124;5.196;2022-10-22T15:57:32;8.35;;;1.67;;
20734;SDS011;10528;52.124;5.196;2022-10-22T15:59:58;10.05;;;2.15;;
20734;SDS011;10528;52.124;5.196;2022-10-22T16:02:25;9.85;;;2.10;;
20734;SDS011;10528;52.124;5.196;2022-10-22T16:04:52;8.30;;;2.30;;
20734;SDS011;10528;52.124;5.196;2022-10-22T16:07:19;11.02;;;2.45;;
20734;SDS011;10528;52.124;5.196;2022-10-22T16:09:50;8.27;;;2.00;;
20734;SDS011;10528;52.124;5.196;2022-10-22T16:12:25;15.38;;;3.00;;
20734;SDS011;10528;52.124;5.196;2022-10-22T16:14:52;12.13;;;2.63;;
20734;SDS011;10528;52.124;5.196;2022-10-22T16:17:18;15.38;;;3.47;;
20734;SDS011;10528;52.124;5.196;2022-10-22T16:19:46;12.98;;;2.72;;
20734;SDS011;10528;52.124;5.196;2022-10-22T16:22:13;17.10;;;3.20;;
20734;SDS011;10528;52.124;5.196;2022-10-22T16:24:40;13.18;;;2.78;;
20734;SDS011;10528;52.124;5.196;2022-10-22T16:27:08;12.80;;;3.22;;
20734;SDS011;10528;52.124;5.196;2022-10-22T16:29:36;11.85;;;2.92;;
20734;SDS011;10528;52.124;5.196;2022-10-22T16:32:04;8.27;;;2.45;;
20734;SDS011;10528;52.124;5.196;2022-10-22T16:34:31;10.85;;;3.13;;
20734;SDS011;10528;52.124;5.196;2022-10-22T16:36:58;10.50;;;2.78;;
20734;SDS011;10528;52.124;5.196;2022-10-22T16:39:25;6.60;;;2.38;;
20734;SDS011;10528;52.124;5.196;2022-10-22T16:41:52;9.30;;;3.40;;
20734;SDS011;10528;52.124;5.196;2022-10-22T16:44:18;12.27;;;3.13;;
20734;SDS011;10528;52.124;5.196;2022-10-22T16:46:45;8.95;;;2.67;;
20734;SDS011;10528;52.124;5.196;2022-10-22T16:49:12;14.35;;;3.13;;